createdAt,value
2019-04-04T00:01:39.660Z,3.83
2019-04-04T00:04:09.520Z,2.33
2019-04-04T00:06:39.088Z,1.93
2019-04-04T00:09:10.387Z,2.63
2019-04-04T00:11:39.944Z,1.90
2019-04-04T00:14:09.492Z,2.00
2019-04-04T00:16:40.725Z,1.73
2019-04-04T00:19:10.256Z,1.90
2019-04-04T00:21:40.061Z,2.03
2019-04-04T00:24:09.742Z,2.00
2019-04-04T00:26:41.740Z,3.43
2019-04-04T00:29:10.581Z,2.40
2019-04-04T00:31:40.180Z,3.23
2019-04-04T00:34:09.706Z,1.97
2019-04-04T00:36:39.258Z,2.40
2019-04-04T00:39:09.463Z,2.10
2019-04-04T00:41:39.543Z,2.53
2019-04-04T00:44:09.072Z,1.90
2019-04-04T00:46:38.596Z,2.43
2019-04-04T00:49:08.263Z,2.20
2019-04-04T00:51:39.138Z,1.63
2019-04-04T00:54:09.119Z,1.93
2019-04-04T00:56:38.650Z,2.10
2019-04-04T00:59:08.241Z,1.43
2019-04-04T01:01:38.052Z,2.00
2019-04-04T01:04:07.583Z,1.97
2019-04-04T01:06:37.150Z,2.33
2019-04-04T01:09:11.309Z,1.50
2019-04-04T01:11:38.136Z,2.50
2019-04-04T01:14:07.695Z,2.00
2019-04-04T01:16:37.236Z,2.00
2019-04-04T01:19:09.683Z,2.00
2019-04-04T01:21:37.979Z,1.83
2019-04-04T01:24:07.506Z,2.33
2019-04-04T01:26:37.063Z,2.67
2019-04-04T01:29:10.057Z,1.80
2019-04-04T01:31:38.913Z,2.20
2019-04-04T01:34:08.467Z,1.80
2019-04-04T01:36:37.997Z,1.80
2019-04-04T01:39:08.169Z,2.27
2019-04-04T01:41:37.715Z,2.03
2019-04-04T01:44:10.976Z,2.00
2019-04-04T01:46:38.487Z,2.00
2019-04-04T01:49:08.317Z,2.23
2019-04-04T01:51:37.879Z,1.80
2019-04-04T01:54:07.493Z,3.20
2019-04-04T01:56:37.679Z,2.17
2019-04-04T01:59:07.348Z,1.90
2019-04-04T02:01:36.883Z,1.80
2019-04-04T02:04:06.718Z,1.90
2019-04-04T02:06:36.229Z,2.67
2019-04-04T02:09:07.282Z,1.70
2019-04-04T02:11:37.605Z,1.97
2019-04-04T02:14:07.546Z,1.70
2019-04-04T02:16:37.096Z,1.70
2019-04-04T02:19:06.658Z,1.40
2019-04-04T02:21:36.190Z,2.07
2019-04-04T02:24:06.049Z,1.77
2019-04-04T02:26:36.665Z,1.67
2019-04-04T02:29:06.292Z,1.87
2019-04-04T02:31:39.516Z,1.60
2019-04-04T02:34:09.071Z,2.70
2019-04-04T02:36:38.601Z,1.60
2019-04-04T02:39:09.335Z,1.83
2019-04-04T02:41:38.972Z,1.57
2019-04-04T02:44:08.859Z,2.17
2019-04-04T02:46:38.742Z,3.23
2019-04-04T02:49:08.280Z,2.00
2019-04-04T02:51:41.230Z,1.70
2019-04-04T02:54:09.054Z,2.00
2019-04-04T02:56:38.649Z,1.83
2019-04-04T02:59:08.177Z,2.00
2019-04-04T03:01:37.724Z,1.90
2019-04-04T03:04:07.274Z,2.17
2019-04-04T03:06:36.816Z,1.53
2019-04-04T03:09:09.954Z,2.07
2019-04-04T03:11:38.559Z,1.67
2019-04-04T03:14:08.080Z,1.60
2019-04-04T03:16:37.620Z,1.80
2019-04-04T03:19:09.898Z,1.60
2019-04-04T03:21:38.426Z,1.60
2019-04-04T03:24:07.934Z,1.80
2019-04-04T03:26:38.143Z,2.10
2019-04-04T03:29:10.457Z,1.47
2019-04-04T03:31:39.341Z,1.70
2019-04-04T03:34:11.662Z,2.60
2019-04-04T03:36:40.253Z,1.80
2019-04-04T03:39:09.834Z,1.70
2019-04-04T03:41:39.360Z,1.70
2019-04-04T03:44:08.921Z,2.03
2019-04-04T03:46:39.127Z,2.00
2019-04-04T03:49:08.799Z,1.73
2019-04-04T03:51:38.712Z,1.77
2019-04-04T03:54:13.057Z,1.77
2019-04-04T03:56:42.593Z,2.00
2019-04-04T03:59:12.126Z,1.57
2019-04-04T04:01:45.393Z,1.80
2019-04-04T04:04:12.962Z,1.67
2019-04-04T04:06:43.336Z,1.97
2019-04-04T04:09:12.848Z,2.17
2019-04-04T04:11:42.373Z,1.60
2019-04-04T04:14:11.908Z,2.03
2019-04-04T04:16:41.847Z,1.53
2019-04-04T04:19:11.486Z,1.77
2019-04-04T04:21:43.380Z,2.53
2019-04-04T04:24:12.228Z,3.27
2019-04-04T04:26:42.248Z,2.27
2019-04-04T04:29:12.270Z,1.60
2019-04-04T04:31:41.788Z,2.20
2019-04-04T04:34:11.321Z,2.47
2019-04-04T04:36:40.870Z,1.40
2019-04-04T04:39:10.392Z,2.73
2019-04-04T04:41:39.950Z,1.80
2019-04-04T04:44:09.488Z,2.17
2019-04-04T04:46:39.054Z,1.80
2019-04-04T04:49:08.563Z,1.70
2019-04-04T04:51:38.440Z,1.53
2019-04-04T04:54:07.995Z,1.60
2019-04-04T04:56:37.522Z,1.80
2019-04-04T04:59:07.070Z,1.50
2019-04-04T05:01:36.661Z,1.80
2019-04-04T05:04:06.555Z,1.43
2019-04-04T05:06:36.374Z,1.40
2019-04-04T05:09:06.758Z,2.83
2019-04-04T05:11:36.316Z,1.57
2019-04-04T05:14:06.149Z,1.83
2019-04-04T05:16:35.883Z,1.50
2019-04-04T05:19:06.993Z,1.90
2019-04-04T05:21:36.546Z,2.57
2019-04-04T05:24:06.086Z,1.63
2019-04-04T05:26:38.580Z,2.13
2019-04-04T05:29:06.856Z,6.80
2019-04-04T05:31:36.464Z,3.20
2019-04-04T05:34:06.011Z,2.10
2019-04-04T05:36:36.766Z,2.30
2019-04-04T05:39:07.844Z,2.53
2019-04-04T05:41:37.910Z,2.67
2019-04-04T05:44:09.949Z,3.83
2019-04-04T05:46:38.958Z,2.10
2019-04-04T05:49:08.651Z,2.83
2019-04-04T05:51:38.173Z,3.60
2019-04-04T05:54:08.378Z,1.87
2019-04-04T05:56:37.971Z,4.23
2019-04-04T05:59:07.539Z,2.50
2019-04-04T06:01:37.105Z,3.23
2019-04-04T06:04:07.070Z,2.43
2019-04-04T06:06:36.615Z,1.87
2019-04-04T06:09:07.865Z,3.80
2019-04-04T06:11:37.875Z,2.20
2019-04-04T06:14:07.432Z,2.87
2019-04-04T06:16:36.989Z,1.60
2019-04-04T06:19:06.522Z,1.50
2019-04-04T06:21:36.389Z,2.03
2019-04-04T06:24:05.923Z,3.40
2019-04-04T06:26:36.118Z,1.80
2019-04-04T06:29:06.730Z,5.40
2019-04-04T06:31:36.278Z,3.00
2019-04-04T06:34:10.136Z,2.77
2019-04-04T06:36:37.580Z,2.60
2019-04-04T06:39:07.993Z,1.60
2019-04-04T06:41:38.167Z,1.97
2019-04-04T06:44:07.703Z,1.97
2019-04-04T06:46:37.254Z,1.87
2019-04-04T06:49:07.107Z,3.63
2019-04-04T06:51:36.727Z,1.60
2019-04-04T06:54:06.548Z,1.83
2019-04-04T06:56:36.098Z,1.73
2019-04-04T06:59:05.639Z,3.13
2019-04-04T07:01:35.528Z,1.40
2019-04-04T07:04:05.135Z,1.97
2019-04-04T07:06:34.684Z,1.57
2019-04-04T07:09:05.561Z,1.17
2019-04-04T07:11:35.869Z,2.00
2019-04-04T07:14:05.478Z,2.40
2019-04-04T07:16:36.878Z,1.70
2019-04-04T07:19:07.922Z,2.37
2019-04-04T07:21:39.515Z,2.10
2019-04-04T07:24:09.398Z,1.47
2019-04-04T07:26:38.980Z,1.33
2019-04-04T07:29:08.529Z,2.23
2019-04-04T07:31:38.572Z,1.60
2019-04-04T07:34:08.160Z,2.97
2019-04-04T07:36:37.846Z,4.03
2019-04-04T07:39:07.397Z,1.83
2019-04-04T07:41:40.033Z,2.17
2019-04-04T07:44:08.207Z,1.30
2019-04-04T07:46:40.916Z,2.93
2019-04-04T07:49:09.457Z,1.30
2019-04-04T07:51:39.393Z,2.03
2019-04-04T07:54:08.941Z,1.40
2019-04-04T07:56:38.503Z,3.10
2019-04-04T07:59:08.040Z,1.50
2019-04-04T08:01:50.254Z,2.80
2019-04-04T08:04:09.212Z,2.47
2019-04-04T08:06:38.785Z,2.60
2019-04-04T08:09:08.487Z,2.40
2019-04-04T08:11:38.391Z,1.80
2019-04-04T08:14:07.942Z,1.53
2019-04-04T08:16:37.571Z,1.33
2019-04-04T08:19:07.124Z,1.40
2019-04-04T08:21:36.781Z,1.47
2019-04-04T08:24:06.342Z,1.30
2019-04-04T08:26:36.260Z,1.37
2019-04-04T08:29:05.887Z,1.40
2019-04-04T08:31:35.469Z,1.80
2019-04-04T08:34:05.821Z,1.13
2019-04-04T08:36:35.925Z,1.63
2019-04-04T08:39:09.110Z,2.40
2019-04-04T08:41:38.713Z,1.30
2019-04-04T08:44:08.537Z,1.43
2019-04-04T08:46:38.170Z,1.43
2019-04-04T08:49:08.052Z,1.33
2019-04-04T08:51:37.599Z,1.00
2019-04-04T08:54:07.270Z,1.50
2019-04-04T08:56:36.804Z,1.57
2019-04-04T08:59:06.413Z,2.20
2019-04-04T09:01:35.958Z,1.20
2019-04-04T09:04:05.572Z,1.00
2019-04-04T09:06:35.379Z,1.40
2019-04-04T09:09:06.522Z,1.40
2019-04-04T09:11:36.082Z,0.97
2019-04-04T09:14:05.733Z,1.30
2019-04-04T09:16:35.580Z,1.03
2019-04-04T09:19:05.208Z,1.10
2019-04-04T09:21:34.753Z,1.67
2019-04-04T09:24:04.316Z,1.73
2019-04-04T09:26:33.871Z,1.57
2019-04-04T09:29:03.403Z,1.63
2019-04-04T09:31:32.980Z,1.63
2019-04-04T09:34:02.624Z,1.17
2019-04-04T09:36:32.162Z,1.33
2019-04-04T09:39:01.814Z,2.90
2019-04-04T09:41:31.353Z,1.53
2019-04-04T09:44:00.928Z,1.10
2019-04-04T09:46:30.467Z,2.67
2019-04-04T09:49:00.356Z,1.10
2019-04-04T09:51:29.899Z,3.50
2019-04-04T09:53:59.477Z,2.23
2019-04-04T09:56:29.023Z,3.43
2019-04-04T09:58:58.582Z,4.43
2019-04-04T10:01:28.151Z,3.07
2019-04-04T10:03:57.994Z,2.83
2019-04-04T10:06:27.646Z,4.80
2019-04-04T10:08:57.211Z,5.50
2019-04-04T10:11:26.768Z,6.37
2019-04-04T10:13:56.340Z,4.27
2019-04-04T10:16:25.887Z,6.03
2019-04-04T10:18:55.468Z,5.40
2019-04-04T10:21:25.272Z,3.80
2019-04-04T10:23:54.844Z,7.60
2019-04-04T10:26:24.451Z,5.30
2019-04-04T10:28:54.041Z,3.30
2019-04-04T10:31:23.592Z,4.77
2019-04-04T10:33:53.416Z,3.27
2019-04-04T10:36:22.996Z,43.03
2019-04-04T10:38:52.580Z,37.00
2019-04-04T10:41:22.180Z,38.87
2019-04-04T10:43:52.036Z,35.53
2019-04-04T10:46:21.695Z,38.53
2019-04-04T10:48:51.389Z,38.63
2019-04-04T10:51:20.938Z,38.27
2019-04-04T10:53:50.517Z,41.93
2019-04-04T10:56:20.410Z,43.90
2019-04-04T10:58:49.960Z,29.23
2019-04-04T11:01:20.882Z,35.10
2019-04-04T11:04:08.423Z,25.93
2019-04-04T11:06:38.045Z,33.90
2019-04-04T11:09:07.983Z,27.63
2019-04-04T11:11:37.618Z,29.20
2019-04-04T11:14:07.174Z,26.83
2019-04-04T11:16:36.727Z,15.67
2019-04-04T11:19:06.387Z,26.73
2019-04-04T11:21:54.270Z,27.57
2019-04-04T11:24:24.205Z,20.97
2019-04-04T11:26:53.766Z,20.97
2019-04-04T11:29:23.330Z,25.87
2019-04-04T11:31:52.929Z,16.93
2019-04-04T11:34:22.507Z,19.50
2019-04-04T11:36:52.060Z,19.43
2019-04-04T11:39:21.616Z,15.07
2019-04-04T11:41:51.165Z,16.13
2019-04-04T11:44:20.770Z,16.83
2019-04-04T11:46:50.671Z,14.40
2019-04-04T11:49:20.230Z,18.10
2019-04-04T11:51:49.790Z,12.20
2019-04-04T11:54:19.349Z,15.03
2019-04-04T11:56:48.913Z,15.17
2019-04-04T11:59:18.542Z,13.00
2019-04-04T12:01:48.548Z,12.67
2019-04-04T12:04:18.071Z,17.87
2019-04-04T12:06:47.626Z,13.20
2019-04-04T12:09:17.612Z,11.57
2019-04-04T12:11:47.174Z,10.33
2019-04-04T12:14:16.727Z,14.10
2019-04-04T12:16:46.288Z,10.23
2019-04-04T12:19:15.853Z,10.40
2019-04-04T12:21:45.502Z,8.10
2019-04-04T12:24:15.077Z,7.63
2019-04-04T12:26:44.654Z,7.33
2019-04-04T12:29:14.195Z,6.23
2019-04-04T12:31:43.735Z,6.57
2019-04-04T12:34:13.290Z,9.07
2019-04-04T12:36:42.886Z,6.57
2019-04-04T12:39:12.437Z,4.03
2019-04-04T12:41:41.984Z,6.90
2019-04-04T12:44:11.549Z,3.67
2019-04-04T12:46:42.506Z,3.57
2019-04-04T12:49:12.351Z,2.50
2019-04-04T12:54:24.562Z,3.60
2019-04-04T12:56:54.151Z,3.83
2019-04-04T12:59:23.667Z,2.50
2019-04-04T13:01:53.211Z,4.17
2019-04-04T13:04:31.018Z,3.90
2019-04-04T13:06:54.110Z,3.60
2019-04-04T13:09:27.605Z,3.57
2019-04-04T13:11:57.410Z,3.30
2019-04-04T13:14:27.557Z,25.70
2019-04-04T13:16:57.139Z,38.03
2019-04-04T13:19:26.788Z,37.60
2019-04-04T13:21:56.457Z,33.70
2019-04-04T13:24:26.079Z,35.83
2019-04-04T13:26:55.638Z,41.40
2019-04-04T13:29:25.189Z,32.80
2019-04-04T13:31:54.787Z,33.50
2019-04-04T13:34:24.591Z,29.77
2019-04-04T13:36:54.129Z,29.87
2019-04-04T13:39:23.939Z,26.47
2019-04-04T13:41:53.725Z,21.43
2019-04-04T13:44:23.461Z,20.47
2019-04-04T13:46:53.647Z,16.50
2019-04-04T13:49:23.193Z,19.00
2019-04-04T13:51:53.637Z,12.37
2019-04-04T13:54:23.253Z,15.03
2019-04-04T13:56:52.833Z,21.47
2019-04-04T13:59:22.391Z,15.67
2019-04-04T14:01:51.923Z,15.93
2019-04-04T14:04:24.449Z,11.03
2019-04-04T14:06:52.805Z,9.40
2019-04-04T14:09:22.624Z,12.10
2019-04-04T14:11:52.182Z,10.47
2019-04-04T14:14:21.711Z,14.43
2019-04-04T14:16:51.346Z,11.63
2019-04-04T14:19:20.896Z,8.50
2019-04-04T14:21:50.475Z,7.40
2019-04-04T14:24:20.041Z,11.20
2019-04-04T14:26:49.667Z,10.67
2019-04-04T14:29:27.464Z,8.63
2019-04-04T14:31:50.450Z,9.90
2019-04-04T14:34:20.021Z,8.87
2019-04-04T14:36:49.566Z,9.00
2019-04-04T14:39:19.114Z,9.80
2019-04-04T14:41:48.676Z,8.37
2019-04-04T14:44:18.218Z,11.93
2019-04-04T14:46:48.339Z,9.63
2019-04-04T14:49:18.038Z,7.33
2019-04-04T14:51:47.585Z,5.40
2019-04-04T14:54:17.237Z,6.13
2019-04-04T14:56:46.782Z,5.87
2019-04-04T14:59:16.322Z,6.13
2019-04-04T15:01:47.775Z,8.00
2019-04-04T15:04:17.336Z,7.97
2019-04-04T15:06:46.911Z,6.50
2019-04-04T15:09:16.484Z,3.90
2019-04-04T15:11:47.692Z,6.03
2019-04-04T15:14:17.257Z,7.77
2019-04-04T15:16:46.833Z,7.97
2019-04-04T15:19:16.426Z,7.50
2019-04-04T15:21:46.002Z,3.90
2019-04-04T15:24:15.884Z,8.90
2019-04-04T15:26:45.458Z,7.90
2019-04-04T15:29:15.002Z,3.40
2019-04-04T15:31:44.869Z,6.30
2019-04-04T15:34:14.410Z,7.17
2019-04-04T15:36:43.960Z,3.27
2019-04-04T15:39:15.988Z,3.73
2019-04-04T15:41:45.629Z,3.97
2019-04-04T15:44:15.187Z,7.57
2019-04-04T15:46:44.728Z,5.80
2019-04-04T15:49:14.282Z,5.03
2019-04-04T15:51:43.830Z,6.43
2019-04-04T15:54:13.377Z,3.57
2019-04-04T15:56:42.936Z,4.53
2019-04-04T15:59:12.825Z,3.97
2019-04-04T16:01:42.406Z,3.63
2019-04-04T16:04:11.959Z,4.77
2019-04-04T16:06:41.485Z,3.80
2019-04-04T16:09:11.383Z,4.60
2019-04-04T16:11:49.501Z,3.83
2019-04-04T16:14:12.578Z,4.37
2019-04-04T16:16:42.420Z,3.53
2019-04-04T16:19:11.987Z,3.70
2019-04-04T16:21:41.530Z,3.63
2019-04-04T16:24:11.104Z,5.07
2019-04-04T16:26:40.654Z,3.30
2019-04-04T16:29:10.499Z,3.97
2019-04-04T16:31:40.096Z,4.20
2019-04-04T16:34:09.668Z,3.37
2019-04-04T16:36:39.510Z,3.90
2019-04-04T16:39:09.606Z,2.73
2019-04-04T16:41:39.225Z,1.90
2019-04-04T16:44:08.810Z,3.07
2019-04-04T16:46:38.647Z,3.37
2019-04-04T16:49:08.282Z,3.53
2019-04-04T16:51:38.162Z,4.47
2019-04-04T16:54:07.715Z,3.30
2019-04-04T16:56:37.269Z,4.47
2019-04-04T16:59:06.847Z,4.17
2019-04-04T17:01:36.434Z,3.43
2019-04-04T17:04:06.093Z,3.20
2019-04-04T17:06:36.296Z,2.77
2019-04-04T17:09:08.518Z,3.47
2019-04-04T17:11:38.084Z,4.33
2019-04-04T17:14:07.607Z,2.50
2019-04-04T17:16:37.156Z,3.50
2019-04-04T17:19:06.689Z,1.70
2019-04-04T17:21:36.832Z,2.20
2019-04-04T17:24:06.643Z,2.97
2019-04-04T17:26:36.191Z,1.90
2019-04-04T17:29:05.788Z,3.00
2019-04-04T17:31:35.691Z,3.97
2019-04-04T17:34:05.482Z,1.63
2019-04-04T17:36:35.244Z,2.27
2019-04-04T17:39:06.682Z,2.27
2019-04-04T17:41:36.283Z,2.53
2019-04-04T17:44:05.853Z,2.00
2019-04-04T17:46:35.509Z,2.40
2019-04-04T17:49:05.506Z,3.73
2019-04-04T17:51:35.388Z,2.33
2019-04-04T17:54:04.966Z,1.73
2019-04-04T17:56:35.063Z,2.10
2019-04-04T17:59:04.641Z,1.93
2019-04-04T18:01:34.464Z,1.43
2019-04-04T18:04:04.040Z,3.43
2019-04-04T18:06:33.576Z,2.53
2019-04-04T18:09:03.124Z,2.23
2019-04-04T18:11:32.672Z,2.60
2019-04-04T18:14:02.745Z,1.93
2019-04-04T18:16:32.384Z,1.90
2019-04-04T18:19:02.224Z,5.70
2019-04-04T18:21:32.146Z,6.80
2019-04-04T18:24:01.693Z,4.00
2019-04-04T18:26:31.270Z,3.37
2019-04-04T18:29:00.821Z,2.17
2019-04-04T18:31:30.427Z,2.87
2019-04-04T18:33:59.980Z,1.90
2019-04-04T18:36:29.903Z,3.00
2019-04-04T18:38:59.479Z,1.70
2019-04-04T18:41:29.022Z,4.03
2019-04-04T18:43:58.584Z,1.73
2019-04-04T18:46:28.130Z,1.83
2019-04-04T18:48:57.680Z,1.57
2019-04-04T18:51:27.228Z,4.90
2019-04-04T18:54:16.058Z,3.67
2019-04-04T18:56:45.639Z,5.60
2019-04-04T18:59:15.180Z,3.37
2019-04-04T19:01:44.845Z,1.40
2019-04-04T19:04:14.838Z,3.63
2019-04-04T19:06:44.394Z,1.70
2019-04-04T19:09:15.413Z,3.87
2019-04-04T19:11:45.172Z,1.37
2019-04-04T19:14:14.745Z,2.50
2019-04-04T19:16:44.303Z,1.87
2019-04-04T19:19:13.966Z,1.40
2019-04-04T19:21:43.548Z,1.77
2019-04-04T19:24:13.112Z,1.77
2019-04-04T19:26:42.790Z,3.37
2019-04-04T19:29:12.631Z,5.27
2019-04-04T19:31:42.270Z,6.03
2019-04-04T19:34:12.234Z,5.07
2019-04-04T19:36:42.096Z,4.70
2019-04-04T19:39:17.067Z,6.83
2019-04-04T19:41:46.645Z,5.63
2019-04-04T19:44:16.257Z,2.47
2019-04-04T19:46:45.816Z,4.43
2019-04-04T19:49:15.640Z,2.27
2019-04-04T19:51:45.195Z,4.07
2019-04-04T19:54:14.816Z,3.40
2019-04-04T19:56:44.407Z,3.73
2019-04-04T19:59:13.974Z,3.80
2019-04-04T20:01:43.534Z,4.50
2019-04-04T20:04:13.422Z,4.40
2019-04-04T20:06:42.980Z,3.73
2019-04-04T20:09:13.713Z,2.13
2019-04-04T20:11:43.282Z,1.87
2019-04-04T20:14:13.269Z,4.03
2019-04-04T20:16:42.857Z,4.03
2019-04-04T20:19:12.428Z,2.97
2019-04-04T20:21:42.022Z,7.57
2019-04-04T20:24:11.747Z,5.97
2019-04-04T20:26:45.654Z,9.60
2019-04-04T20:29:15.732Z,14.13
2019-04-04T20:31:45.367Z,19.13
2019-04-04T20:34:15.016Z,27.70
2019-04-04T20:36:44.606Z,36.17
2019-04-04T20:39:14.197Z,40.00
2019-04-04T20:41:43.790Z,48.13
2019-04-04T20:44:13.413Z,57.67
2019-04-04T20:46:43.058Z,63.73
2019-04-04T20:49:12.671Z,73.90
2019-04-04T20:51:42.244Z,87.23
2019-04-04T20:54:11.827Z,100.50
2019-04-04T20:56:41.410Z,106.87
2019-04-04T20:59:10.998Z,113.07
2019-04-04T21:01:40.562Z,118.67
2019-04-04T21:04:10.211Z,117.83
2019-04-04T21:06:40.842Z,130.40
2019-04-04T21:09:10.514Z,125.67
2019-04-04T21:11:40.135Z,135.73
2019-04-04T21:14:10.089Z,134.97
2019-04-04T21:16:39.682Z,140.53
2019-04-04T21:19:09.242Z,148.20
2019-04-04T21:21:38.797Z,142.27
2019-04-04T21:24:08.346Z,159.47
2019-04-04T21:26:38.006Z,153.50
2019-04-04T21:29:07.566Z,153.47
2019-04-04T21:31:37.200Z,168.50
2019-04-04T21:34:06.814Z,172.30
2019-04-04T21:36:36.407Z,176.43
2019-04-04T21:39:07.580Z,192.33
2019-04-04T21:41:37.414Z,197.63
2019-04-04T21:44:09.172Z,198.63
2019-04-04T21:46:38.339Z,205.87
2019-04-04T21:49:07.926Z,223.70
2019-04-04T21:51:37.564Z,218.43
2019-04-04T21:54:07.162Z,224.07
2019-04-04T21:56:36.719Z,225.73
2019-04-04T21:59:06.626Z,216.93
2019-04-04T22:01:36.826Z,226.50
2019-04-04T22:04:06.993Z,222.77
2019-04-04T22:06:36.644Z,215.67
2019-04-04T22:09:08.677Z,211.20
2019-04-04T22:11:38.220Z,217.80
2019-04-04T22:14:15.985Z,225.27
2019-04-04T22:16:39.116Z,222.93
2019-04-04T22:19:08.718Z,217.33
2019-04-04T22:21:38.287Z,217.70
2019-04-04T22:24:08.292Z,212.67
2019-04-04T22:26:37.898Z,210.43
2019-04-04T22:29:07.502Z,207.13
2019-04-04T22:31:37.086Z,210.53
2019-04-04T22:34:07.007Z,207.77
2019-04-04T22:36:36.592Z,208.33
2019-04-04T22:39:07.610Z,206.10
2019-04-04T22:41:37.567Z,200.63
2019-04-04T22:44:07.192Z,193.77
2019-04-04T22:46:36.882Z,192.57
2019-04-04T22:49:06.452Z,190.93
2019-04-04T22:51:36.011Z,195.77
2019-04-04T22:54:05.566Z,191.67
2019-04-04T22:56:35.440Z,182.33
2019-04-04T22:59:05.644Z,180.77
2019-04-04T23:01:35.255Z,181.27
2019-04-04T23:04:04.821Z,186.07
2019-04-04T23:06:34.846Z,175.20
2019-04-04T23:09:06.044Z,176.07
2019-04-04T23:11:35.793Z,166.27
2019-04-04T23:14:05.358Z,169.37
2019-04-04T23:16:35.658Z,162.10
2019-04-04T23:19:05.285Z,164.10
2019-04-04T23:21:34.855Z,162.37
2019-04-04T23:24:04.725Z,162.77
2019-04-04T23:26:34.550Z,157.27
2019-04-04T23:29:04.168Z,150.53
2019-04-04T23:31:33.704Z,152.63
2019-04-04T23:34:03.241Z,147.87
2019-04-04T23:36:35.258Z,149.77
2019-04-04T23:39:05.750Z,149.93
2019-04-04T23:41:35.352Z,143.73
2019-04-04T23:44:04.936Z,141.40
2019-04-04T23:46:34.956Z,138.07
2019-04-04T23:49:04.862Z,140.37
2019-04-04T23:51:34.505Z,133.53
2019-04-04T23:54:04.067Z,135.03
2019-04-04T23:56:33.990Z,134.70
2019-04-04T23:59:03.562Z,131.87
